Minerva Roxanne — SWSZ — position and weather

sailwx.info

Track history (hours):
 
Tides and Currents Weather Stations Pressure Air Temp Water Temp Dewpoint Dewpoint Depression Visibility Wind Speed Wind Dir Waves Ship Positions

Minerva Roxanne

Last reported at 2018-Feb-17 17:08 UTC. Time now 2018-Feb-21 05:28 UTC.
Position N 39°30' W 027°34'.

Length 243 m; draft 11.7 m.

Type: Ship. MMSI: 240198000.

Date/timePositionNaut miles runAvg speedWind from/ knotsBaromVisibWave heightAir tempDewpointWater temp
2018-Feb-17 17:08N 39°30' W 027°34'212.9
2018-Feb-17 17:00N 39°29' W 027°36'612.7
2018-Feb-17 16:30N 39°26' W 027°43'612.6
2018-Feb-17 16:00N 39°22' W 027°49'612.2
2018-Feb-17 15:30N 39°19' W 027°56'612.4
2018-Feb-17 15:00N 39°16' W 028°03'713.2
2018-Feb-17 14:31N 39°12' W 028°10'713.3
2018-Feb-17 14:00N 39°08' W 028°16'713.1
2018-Feb-17 13:30N 39°04' W 028°23'612.6
2018-Feb-17 13:01N 38°60' W 028°30'612.7
2018-Feb-17 12:30N 38°56' W 028°36'612.4
2018-Feb-17 12:00N 38°52' W 028°42'612.3
2018-Feb-17 11:31N 38°48' W 028°48'612.7
2018-Feb-17 11:00N 38°44' W 028°55'713.0
2018-Feb-17 10:30N 38°40' W 029°02'612.7
2018-Feb-17 10:00N 38°36' W 029°08'612.4
2018-Feb-17 09:30N 38°33' W 029°14'612.6
2018-Feb-17 09:01N 38°31' W 029°22'612.5
2018-Feb-17 08:30N 38°29' W 029°30'612.3
2018-Feb-17 08:00N 38°27' W 029°37'612.6
2018-Feb-17 07:31N 38°25' W 029°45'712.8
2018-Feb-17 07:00N 38°23' W 029°53'612.5
2018-Feb-17 06:30N 38°21' W 030°00'612.7
2018-Feb-17 06:01N 38°19' W 030°08'612.6
2018-Feb-17 05:30N 38°17' W 030°15'612.3
2018-Feb-17 05:00N 38°15' W 030°23'612.7
2018-Feb-17 04:30N 38°13' W 030°31'  
Track history (hours):
 
Tides and Currents Weather Stations Pressure Air Temp Water Temp Dewpoint Dewpoint Depression Visibility Wind Speed Wind Dir Waves Ship Positions

Minerva Roxanne

Last reported at 2018-Feb-17 17:08 UTC. Time now 2018-Feb-21 05:28 UTC.
Position N 39°30' W 027°34'.

Length 243 m; draft 11.7 m.

Type: Ship. MMSI: 240198000.

Date/timePositionNaut miles runAvg speedWind from/ knotsBaromVisibWave heightAir tempDewpointWater temp
2018-Feb-17 17:08N 39°30' W 027°34'212.9
2018-Feb-17 17:00N 39°29' W 027°36'612.7
2018-Feb-17 16:30N 39°26' W 027°43'612.6
2018-Feb-17 16:00N 39°22' W 027°49'612.2
2018-Feb-17 15:30N 39°19' W 027°56'612.4
2018-Feb-17 15:00N 39°16' W 028°03'713.2
2018-Feb-17 14:31N 39°12' W 028°10'713.3
2018-Feb-17 14:00N 39°08' W 028°16'713.1
2018-Feb-17 13:30N 39°04' W 028°23'612.6
2018-Feb-17 13:01N 38°60' W 028°30'612.7
2018-Feb-17 12:30N 38°56' W 028°36'612.4
2018-Feb-17 12:00N 38°52' W 028°42'612.3
2018-Feb-17 11:31N 38°48' W 028°48'612.7
2018-Feb-17 11:00N 38°44' W 028°55'713.0
2018-Feb-17 10:30N 38°40' W 029°02'612.7
2018-Feb-17 10:00N 38°36' W 029°08'612.4
2018-Feb-17 09:30N 38°33' W 029°14'612.6
2018-Feb-17 09:01N 38°31' W 029°22'612.5
2018-Feb-17 08:30N 38°29' W 029°30'612.3
2018-Feb-17 08:00N 38°27' W 029°37'612.6
2018-Feb-17 07:31N 38°25' W 029°45'712.8
2018-Feb-17 07:00N 38°23' W 029°53'612.5
2018-Feb-17 06:30N 38°21' W 030°00'612.7
2018-Feb-17 06:01N 38°19' W 030°08'612.6
2018-Feb-17 05:30N 38°17' W 030°15'612.3
2018-Feb-17 05:00N 38°15' W 030°23'612.7
2018-Feb-17 04:30N 38°13' W 030°31'  

Dump ship's entire track history